createdAt,value
2018-12-31T00:04:07.184Z,28.87
2018-12-31T00:10:02.191Z,33.49
2018-12-31T00:15:57.268Z,31.83
2018-12-31T00:21:52.194Z,34.26
2018-12-31T00:27:47.202Z,30.36
2018-12-31T00:33:42.211Z,34.19
2018-12-31T00:39:37.219Z,36.72
2018-12-31T00:45:32.219Z,35.69
2018-12-31T00:51:27.241Z,35.05
2018-12-31T00:57:22.233Z,36.27
2018-12-31T01:03:17.229Z,36.72
2018-12-31T01:09:12.275Z,33.73
2018-12-31T01:15:07.229Z,28.28
2018-12-31T01:21:02.220Z,31.37
2018-12-31T01:26:57.245Z,34.21
2018-12-31T01:32:52.249Z,31.94
2018-12-31T01:38:47.257Z,45.84
2018-12-31T01:44:42.291Z,39.63
2018-12-31T01:50:37.256Z,39.2
2018-12-31T01:56:32.298Z,40.26
2018-12-31T02:02:27.263Z,46.06
2018-12-31T02:08:22.265Z,47.76
2018-12-31T02:14:17.340Z,44.3
2018-12-31T02:20:12.267Z,36.73
2018-12-31T02:26:07.330Z,34.58
2018-12-31T02:32:02.316Z,32.96
2018-12-31T02:37:57.271Z,42.07
2018-12-31T02:43:52.273Z,30.86
2018-12-31T02:49:47.267Z,26.04
2018-12-31T02:55:42.299Z,31.18
2018-12-31T03:01:37.321Z,29.84
2018-12-31T03:07:32.295Z,26.09
2018-12-31T03:13:27.347Z,21.67
2018-12-31T03:19:22.309Z,18.45
2018-12-31T03:25:17.313Z,19.79
2018-12-31T03:31:12.326Z,20.95
2018-12-31T03:37:07.301Z,21.69
2018-12-31T03:43:02.349Z,19.37
2018-12-31T03:48:57.338Z,25.49
2018-12-31T03:54:52.317Z,20.55
2018-12-31T04:00:47.376Z,22.3
2018-12-31T04:06:42.309Z,21.29
2018-12-31T04:12:37.311Z,23.96
2018-12-31T04:18:32.323Z,21.18
2018-12-31T04:24:27.318Z,16.79
2018-12-31T04:30:22.329Z,20.25
2018-12-31T04:36:17.327Z,18.06
2018-12-31T04:42:12.330Z,17.07
2018-12-31T04:48:07.360Z,17.33
2018-12-31T04:54:02.399Z,19.68
2018-12-31T04:59:57.348Z,17.14
2018-12-31T05:05:52.363Z,16.03
2018-12-31T05:11:47.336Z,17.58
2018-12-31T05:17:42.349Z,19.59
2018-12-31T05:23:37.361Z,20.76
2018-12-31T05:29:32.361Z,18.83
2018-12-31T05:35:27.421Z,17.56
2018-12-31T05:41:22.385Z,17.86
2018-12-31T05:47:17.407Z,20.56
2018-12-31T05:53:12.376Z,18.72
2018-12-31T05:59:07.411Z,19.42
2018-12-31T06:05:02.394Z,18.82
2018-12-31T06:10:57.407Z,14.73
2018-12-31T06:16:52.416Z,14.54
2018-12-31T06:22:47.374Z,15.92
2018-12-31T06:28:42.423Z,17.87
2018-12-31T06:34:37.425Z,19.93
2018-12-31T06:40:32.411Z,17.1
2018-12-31T06:46:27.392Z,18.85
2018-12-31T06:52:22.409Z,16.11
2018-12-31T06:58:17.415Z,14.36
2018-12-31T07:04:12.412Z,15.92
2018-12-31T07:10:07.446Z,21.87
2018-12-31T07:16:02.426Z,16.86
2018-12-31T07:21:57.474Z,16.02
2018-12-31T07:27:52.455Z,18.87
2018-12-31T07:33:47.416Z,17.41
2018-12-31T07:39:42.435Z,17.2
2018-12-31T07:45:37.488Z,15.52
2018-12-31T07:51:32.434Z,20.11
2018-12-31T07:57:27.435Z,19.02
2018-12-31T08:03:22.450Z,19.67
2018-12-31T08:09:17.454Z,22.33
2018-12-31T08:15:12.469Z,20.42
2018-12-31T08:21:07.479Z,18.61
2018-12-31T08:27:02.502Z,20.74
2018-12-31T08:32:57.447Z,23.06
2018-12-31T08:38:52.451Z,26.33
2018-12-31T08:44:47.535Z,23.73
2018-12-31T08:50:42.491Z,20.49
2018-12-31T08:56:37.471Z,20.29
2018-12-31T09:02:32.471Z,24.51
2018-12-31T09:08:27.563Z,23.11
2018-12-31T09:14:22.514Z,26.65
2018-12-31T09:20:17.491Z,23.38
2018-12-31T09:26:12.491Z,22.79
2018-12-31T09:32:07.524Z,20.14
2018-12-31T09:38:02.561Z,21.8
2018-12-31T09:43:57.529Z,23.39
2018-12-31T09:49:52.514Z,21.52
2018-12-31T09:55:47.504Z,23.99
2018-12-31T10:01:42.502Z,19.57
2018-12-31T10:07:37.529Z,25.97
2018-12-31T10:13:32.558Z,25.23
2018-12-31T10:19:27.540Z,23.11
2018-12-31T10:25:22.523Z,24.33
2018-12-31T10:31:17.618Z,28.8
2018-12-31T10:37:12.578Z,25.83
2018-12-31T10:43:07.538Z,24.89
2018-12-31T10:49:02.548Z,27.92
2018-12-31T10:54:57.558Z,30.5
2018-12-31T11:00:52.549Z,22.83
2018-12-31T11:06:47.566Z,24.23
2018-12-31T11:12:42.544Z,22.08
2018-12-31T11:18:37.555Z,22.69
2018-12-31T11:24:32.562Z,39.84
2018-12-31T11:30:27.556Z,23.3
2018-12-31T11:36:22.558Z,22.22
2018-12-31T11:42:17.551Z,29.87
2018-12-31T11:48:12.570Z,23.47
2018-12-31T11:54:07.614Z,23.31
2018-12-31T12:00:06.714Z,26.07
2018-12-31T12:05:57.618Z,20.98
2018-12-31T12:11:52.592Z,20.07
2018-12-31T12:17:47.583Z,20.12
2018-12-31T12:23:42.604Z,19.29
2018-12-31T12:29:37.640Z,17.55
2018-12-31T12:35:32.583Z,21.72
2018-12-31T12:41:27.607Z,17.2
2018-12-31T12:47:22.597Z,22.06
2018-12-31T12:53:17.615Z,18.88
2018-12-31T12:59:12.602Z,19.18
2018-12-31T13:05:07.632Z,20.86
2018-12-31T13:11:02.637Z,18.84
2018-12-31T13:16:57.640Z,23.14
2018-12-31T13:22:52.632Z,19.84
2018-12-31T13:28:47.620Z,18.45
2018-12-31T13:34:42.620Z,23.38
2018-12-31T13:40:37.633Z,21.85
2018-12-31T13:46:32.641Z,21.82
2018-12-31T13:52:27.660Z,17.46
2018-12-31T13:58:22.659Z,20.46
2018-12-31T14:04:17.636Z,22.73
2018-12-31T14:10:12.712Z,22.07
2018-12-31T14:16:07.668Z,21.25
2018-12-31T14:22:02.665Z,22.48
2018-12-31T14:27:57.648Z,17.65
2018-12-31T14:33:52.672Z,22.07
2018-12-31T14:39:47.683Z,25.57
2018-12-31T14:45:42.682Z,20.04
2018-12-31T14:51:37.676Z,18.39
2018-12-31T14:57:32.667Z,17.68
2018-12-31T15:03:27.731Z,18.75
2018-12-31T15:09:22.678Z,18.18
2018-12-31T15:15:17.697Z,17.21
2018-12-31T15:21:12.695Z,20.48
2018-12-31T15:27:07.722Z,21.35
2018-12-31T15:33:02.688Z,22.93
2018-12-31T15:38:57.699Z,24.32
2018-12-31T15:44:52.727Z,21.82
2018-12-31T15:50:47.711Z,22.32
2018-12-31T15:56:42.728Z,22.51
2018-12-31T16:02:37.707Z,19.34
2018-12-31T16:08:32.747Z,21.99
2018-12-31T16:14:27.740Z,19.77
2018-12-31T16:20:22.741Z,25.73
2018-12-31T16:26:17.733Z,23.77
2018-12-31T16:32:12.729Z,24.37
2018-12-31T16:38:07.727Z,24.49
2018-12-31T16:44:02.749Z,20.64
2018-12-31T16:49:57.743Z,21
2018-12-31T16:55:52.758Z,20.09
2018-12-31T17:01:47.764Z,20.87
2018-12-31T17:07:42.751Z,31.41
2018-12-31T17:13:37.765Z,36.99
2018-12-31T17:19:32.756Z,34.66
2018-12-31T17:25:27.764Z,42.35
2018-12-31T17:31:22.769Z,45.74
2018-12-31T17:37:17.790Z,49.63
2018-12-31T17:43:12.779Z,39.56
2018-12-31T17:49:07.761Z,37.63
2018-12-31T17:55:02.791Z,33.9
2018-12-31T18:00:57.789Z,37.88
2018-12-31T18:06:52.805Z,36.98
2018-12-31T18:12:47.817Z,37.59
2018-12-31T18:18:42.783Z,39.9
2018-12-31T18:24:37.792Z,56.6
2018-12-31T18:30:32.821Z,42.76
2018-12-31T18:36:27.801Z,44.94
2018-12-31T18:42:22.853Z,44.32
2018-12-31T18:48:17.802Z,48.23
2018-12-31T18:54:12.840Z,45.95
2018-12-31T19:00:07.821Z,44.95
2018-12-31T19:06:02.881Z,38.21
2018-12-31T19:11:57.844Z,42.31
2018-12-31T19:17:52.841Z,38.97
2018-12-31T19:23:47.809Z,36.6
2018-12-31T19:29:42.907Z,38.96
2018-12-31T19:35:37.837Z,36.34
2018-12-31T19:41:32.875Z,38.72
2018-12-31T19:47:27.846Z,44.85
2018-12-31T19:53:22.867Z,35.75
2018-12-31T19:59:17.837Z,34.64
2018-12-31T20:05:12.872Z,26.71
2018-12-31T20:11:07.862Z,26.69
2018-12-31T20:17:02.870Z,25.7
2018-12-31T20:22:57.919Z,32.26
2018-12-31T20:28:52.856Z,33.68
2018-12-31T20:34:47.901Z,27.36
2018-12-31T20:40:42.885Z,27.61
2018-12-31T20:46:37.881Z,38.42
2018-12-31T20:52:32.941Z,35.25
2018-12-31T20:58:27.941Z,48.65
2018-12-31T21:04:22.864Z,57.68
2018-12-31T21:10:18.010Z,37.5
2018-12-31T21:16:12.899Z,47.11
2018-12-31T21:22:07.899Z,33.75
2018-12-31T21:28:02.906Z,39.11
2018-12-31T21:33:57.901Z,30.42
2018-12-31T21:39:52.927Z,30.39
2018-12-31T21:45:47.905Z,41.39
2018-12-31T21:51:42.910Z,40.67
2018-12-31T21:57:37.960Z,49.91
2018-12-31T22:03:32.910Z,47.01
2018-12-31T22:09:27.929Z,56.24
2018-12-31T22:15:22.942Z,67.1
2018-12-31T22:21:17.951Z,63.38
2018-12-31T22:27:12.974Z,61.12
2018-12-31T22:33:07.949Z,57.92
2018-12-31T22:39:02.945Z,65.03
2018-12-31T22:44:57.959Z,62.09
2018-12-31T22:50:52.962Z,64.72
2018-12-31T22:56:47.957Z,45.53
2018-12-31T23:02:42.971Z,43.33
2018-12-31T23:08:37.989Z,48.43
2018-12-31T23:14:32.969Z,50.75
2018-12-31T23:20:27.993Z,65.98
2018-12-31T23:26:22.999Z,122.41
2018-12-31T23:32:17.979Z,116.78
2018-12-31T23:38:12.967Z,70.03
2018-12-31T23:44:07.991Z,141.42
2018-12-31T23:50:02.988Z,111.7
2018-12-31T23:55:57.999Z,127.24
